sim
Sign-in with your pilot id or email,
or register
Callsign
Passwort

Schedule Details

Flight Number: RYR1342 (1)
Departure: Genoa Cristoforo Colombo Airport (LIMJ) at 19:30
Arrival: London Stansted Airport (EGSS) at 21:40
Route: Ryanair Passenger Schedule. Enter filed route here before submitting Pirep.

Weather Information
Getting current METAR information for LIMJ 241550Z 01011KT 340V040 CAVOK 11/M11 Q1000
Getting current METAR information for EGSS 241550Z AUTO 09008KT 1400 R04/1300 -SN BKN003 BKN008 OVC029 00/00 Q0994

Schedule Frequency

Route Map